Banquete, Texas
Current Conditions -  °F | °C
As of 3:55 PM on Saturday 25 Oct 2014 (Local Time) from KRBO Reporting Station
Heavy Rain Heavy Rain  
Wind Chill: 86°   Ceiling: Unl
Heat Index: 86°   Visibility: 5mi
Dew Point: 58°   Wind: 10mph
Humidity: 39%   Direction: 70°ENE
Pressure: 30.09"   Gusts: NA
Location:  27.81°N, 97.8°W
Report Text: KRBO 252055Z AUTO 07009KT 5SM +RA CLR 30/14 A3009 RMK AO2 T02990144
Loading
Personal Weather Stations






























Interactive Weather Map
Tropical Storm Tracking
New forecast layout! Learn more

10-Day Weather Forecast

Advertisements
Track Severe Weather on mobile